Time;durP1;ratioP1;P1;durP2;ratioP2;P2;SDS_P1;SDS_P2;PMS_P1;PMS_P2;Temp;Humidity;BMP_temperature;BMP_pressure;BME280_temperature;BME280_humidity;BME280_pressure;Samples;Min_cycle;Max_cycle;Signal;HPM_P1;HPM_P2
2023/07/07 00:02:08;;;;;;;8.20;5.90;;;17.40;54.60;;;;;;5029999;28;20026;-73
2023/07/07 00:04:33;;;;;;;5.90;5.28;;;17.30;54.70;;;;;;5028401;28;20056;-74
2023/07/07 00:06:59;;;;;;;6.90;5.50;;;17.30;54.80;;;;;;5029987;28;20034;-73
2023/07/07 00:09:25;;;;;;;6.75;5.30;;;17.40;54.30;;;;;;5030007;28;20030;-73
2023/07/07 00:11:51;;;;;;;8.77;5.57;;;17.40;54.70;;;;;;5029869;28;20024;-73
2023/07/07 00:14:17;;;;;;;7.03;5.38;;;17.30;54.40;;;;;;5030006;28;20021;-73
2023/07/07 00:16:42;;;;;;;8.55;6.15;;;17.30;55.20;;;;;;5029704;28;20028;-73
2023/07/07 00:19:09;;;;;;;6.88;5.35;;;17.30;55.20;;;;;;5029884;28;20029;-73
2023/07/07 00:21:36;;;;;;;7.18;5.50;;;17.20;54.90;;;;;;5029615;28;20014;-73
2023/07/07 00:24:02;;;;;;;6.45;5.07;;;17.20;55.30;;;;;;5029861;28;20108;-73
2023/07/07 00:26:28;;;;;;;7.05;5.57;;;17.20;55.40;;;;;;5028636;28;20140;-73
2023/07/07 00:28:53;;;;;;;11.45;5.93;;;17.20;55.30;;;;;;5029961;28;20029;-73
2023/07/07 00:31:22;;;;;;;7.60;5.28;;;17.10;55.30;;;;;;5029853;28;20022;-73
2023/07/07 00:33:48;;;;;;;7.28;5.63;;;17.00;55.80;;;;;;5029749;28;20038;-73
2023/07/07 00:36:13;;;;;;;7.25;5.75;;;16.90;56.00;;;;;;5029829;28;20029;-73
2023/07/07 00:38:39;;;;;;;7.75;5.53;;;16.90;56.40;;;;;;5029721;28;20026;-73
2023/07/07 00:41:06;;;;;;;7.18;5.43;;;16.70;56.90;;;;;;5030654;28;20025;-73
2023/07/07 00:43:32;;;;;;;9.65;5.80;;;16.70;57.10;;;;;;5033651;28;20089;-73
2023/07/07 00:45:59;;;;;;;8.95;5.70;;;16.70;57.00;;;;;;5033144;28;20112;-73
2023/07/07 00:48:33;;;;;;;6.85;5.60;;;16.70;57.00;;;;;;5033301;28;20026;-74
2023/07/07 00:51:09;;;;;;;7.68;5.68;;;16.90;56.70;;;;;;5032798;28;20017;-73
2023/07/07 00:53:36;;;;;;;6.05;5.43;;;16.90;56.70;;;;;;5033006;28;20021;-73
2023/07/07 00:56:06;;;;;;;7.95;5.50;;;16.80;56.50;;;;;;5032886;28;20508;-73
2023/07/07 00:58:35;;;;;;;8.40;5.60;;;16.70;56.60;;;;;;5031853;28;20026;-73
2023/07/07 01:01:05;;;;;;;8.48;5.88;;;16.70;57.20;;;;;;5033181;28;20082;-73
2023/07/07 01:03:41;;;;;;;6.65;5.40;;;16.60;57.50;;;;;;5033183;28;20022;-74
2023/07/07 01:06:11;;;;;;;6.35;5.30;;;16.50;57.50;;;;;;5032845;28;20470;-73
2023/07/07 01:08:39;;;;;;;7.03;5.43;;;16.40;57.70;;;;;;5032973;28;20108;-74
2023/07/07 01:11:05;;;;;;;6.57;5.63;;;16.40;57.90;;;;;;5032687;28;20049;-75
2023/07/07 01:13:31;;;;;;;7.45;5.38;;;16.40;58.10;;;;;;5032896;28;20056;-74
2023/07/07 01:16:39;;;;;;;7.40;5.05;;;16.50;57.70;;;;;;5031493;28;20060;-75
2023/07/07 01:19:44;;;;;;;7.10;6.07;;;16.40;57.80;;;;;;5073832;28;20025;-74
2023/07/07 01:22:31;;;;;;;7.68;5.75;;;16.30;58.70;;;;;;5025348;28;20623;-74
2023/07/07 01:25:28;;;;;;;9.18;5.47;;;16.30;59.00;;;;;;5032821;28;20033;-74
2023/07/07 01:28:03;;;;;;;7.93;5.25;;;16.40;58.80;;;;;;5032540;28;20056;-74
2023/07/07 01:30:37;;;;;;;9.35;5.90;;;16.40;58.80;;;;;;5032531;28;20381;-74
2023/07/07 01:33:08;;;;;;;8.90;6.00;;;16.40;58.40;;;;;;5032337;28;20116;-75
2023/07/07 01:35:34;;;;;;;8.23;5.47;;;16.40;58.60;;;;;;5032479;28;20268;-75
2023/07/07 01:38:01;;;;;;;7.05;5.28;;;16.40;59.00;;;;;;5032538;28;20062;-75
2023/07/07 01:40:38;;;;;;;8.15;5.53;;;16.50;59.00;;;;;;5032557;28;20029;-75
2023/07/07 01:43:10;;;;;;;8.10;4.93;;;16.60;58.40;;;;;;5032246;28;20041;-75
2023/07/07 01:46:05;;;;;;;6.78;5.18;;;16.70;57.90;;;;;;5032196;27;20078;-74
2023/07/07 01:48:53;;;;;;;8.13;5.43;;;16.70;58.00;;;;;;5032206;28;20026;-74
2023/07/07 01:51:23;;;;;;;12.70;5.68;;;16.60;58.10;;;;;;5032291;28;20137;-73
2023/07/07 01:53:51;;;;;;;8.73;4.70;;;16.40;58.20;;;;;;5032344;28;20026;-73
2023/07/07 01:56:21;;;;;;;6.35;5.13;;;16.20;58.50;;;;;;5032214;28;20025;-73
2023/07/07 01:58:48;;;;;;;6.80;4.97;;;16.10;59.00;;;;;;5032165;28;20062;-73
2023/07/07 02:01:14;;;;;;;10.05;5.85;;;16.10;59.30;;;;;;5032157;28;20044;-77
2023/07/07 02:03:39;;;;;;;5.97;5.03;;;16.00;59.80;;;;;;5032130;28;20026;-73
2023/07/07 02:06:05;;;;;;;8.50;5.45;;;15.90;59.90;;;;;;5032120;28;20037;-73
2023/07/07 02:08:31;;;;;;;9.55;5.97;;;15.80;60.00;;;;;;5030796;28;20105;-73
2023/07/07 02:10:57;;;;;;;6.25;5.15;;;15.80;60.30;;;;;;5031570;28;20025;-73
2023/07/07 02:13:22;;;;;;;6.57;5.13;;;15.70;60.30;;;;;;5031969;28;20026;-73
2023/07/07 02:15:48;;;;;;;8.77;6.50;;;15.60;60.80;;;;;;5031935;28;20033;-73
2023/07/07 02:18:13;;;;;;;5.90;5.25;;;15.50;61.40;;;;;;5031957;28;20030;-76
2023/07/07 02:20:39;;;;;;;7.35;5.32;;;15.50;61.50;;;;;;5031887;28;20041;-73
2023/07/07 02:23:04;;;;;;;8.20;5.50;;;15.40;62.30;;;;;;5031959;28;20022;-72
2023/07/07 02:25:30;;;;;;;7.10;5.63;;;15.30;62.50;;;;;;5031800;28;20018;-73
2023/07/07 02:27:55;;;;;;;7.68;5.90;;;15.30;62.50;;;;;;5031809;28;20504;-72
2023/07/07 02:30:21;;;;;;;8.02;5.75;;;15.30;62.90;;;;;;5030353;28;20473;-72
2023/07/07 02:32:46;;;;;;;9.20;5.72;;;15.30;62.90;;;;;;5032482;28;20029;-73
2023/07/07 02:35:13;;;;;;;6.70;5.43;;;15.30;62.90;;;;;;5032322;28;20030;-73
2023/07/07 02:37:39;;;;;;;7.07;5.20;;;15.20;63.20;;;;;;5031879;28;20030;-74
2023/07/07 02:40:05;;;;;;;8.23;6.10;;;15.20;63.10;;;;;;5031732;28;20393;-73
2023/07/07 02:42:31;;;;;;;9.15;5.63;;;15.20;63.20;;;;;;5031565;28;20482;-74
2023/07/07 02:44:56;;;;;;;8.90;5.65;;;15.10;63.20;;;;;;5031471;28;20038;-73
2023/07/07 02:47:22;;;;;;;6.95;5.70;;;15.20;63.30;;;;;;5031646;28;20041;-72
2023/07/07 02:49:48;;;;;;;8.73;5.82;;;15.20;63.20;;;;;;5031525;28;20037;-72
2023/07/07 02:52:14;;;;;;;9.05;5.82;;;15.10;63.20;;;;;;5031419;28;20070;-73
2023/07/07 02:54:39;;;;;;;6.90;5.75;;;15.00;63.60;;;;;;5031396;28;20021;-72
2023/07/07 02:57:06;;;;;;;8.70;5.22;;;14.90;63.90;;;;;;5031380;28;20030;-73
2023/07/07 02:59:31;;;;;;;8.73;6.07;;;14.80;64.20;;;;;;5030035;28;20026;-74
2023/07/07 03:01:57;;;;;;;7.15;5.68;;;14.80;64.30;;;;;;5031281;28;20025;-73
2023/07/07 03:04:26;;;;;;;6.18;5.57;;;14.80;64.70;;;;;;5030704;28;20022;-73
2023/07/07 03:06:52;;;;;;;8.35;5.70;;;14.80;64.90;;;;;;5031141;28;20026;-76
2023/07/07 03:09:18;;;;;;;8.20;6.18;;;14.70;64.90;;;;;;5031268;28;20032;-72
2023/07/07 03:11:44;;;;;;;6.65;5.40;;;14.70;65.00;;;;;;5031171;28;20481;-72
2023/07/07 03:14:09;;;;;;;8.40;6.18;;;14.70;64.90;;;;;;5031159;28;20021;-73
2023/07/07 03:16:35;;;;;;;6.18;5.10;;;14.80;64.70;;;;;;5029651;28;20173;-73
2023/07/07 03:19:03;;;;;;;6.22;5.40;;;15.00;64.40;;;;;;5031225;28;20525;-73
2023/07/07 03:21:29;;;;;;;7.35;5.35;;;15.00;64.00;;;;;;5030823;28;20029;-72
2023/07/07 03:23:56;;;;;;;7.18;5.75;;;15.10;63.90;;;;;;5031014;28;20490;-72
2023/07/07 03:26:23;;;;;;;7.78;5.80;;;15.10;63.80;;;;;;5030759;28;20040;-73
2023/07/07 03:28:49;;;;;;;6.30;5.30;;;15.10;63.90;;;;;;5030874;28;20030;-72
2023/07/07 03:31:22;;;;;;;9.55;5.78;;;15.10;63.90;;;;;;5030756;28;20101;-73
2023/07/07 03:33:50;;;;;;;7.45;5.85;;;15.10;63.70;;;;;;5030734;28;20027;-72
2023/07/07 03:36:16;;;;;;;7.60;6.05;;;15.00;63.40;;;;;;5030782;28;20030;-73
2023/07/07 03:38:42;;;;;;;10.80;6.32;;;15.00;63.30;;;;;;5030622;28;20030;-73
2023/07/07 03:41:15;;;;;;;7.55;6.07;;;14.90;63.50;;;;;;5030274;28;20477;-73
2023/07/07 03:43:45;;;;;;;9.60;6.10;;;14.90;63.80;;;;;;5030622;28;20034;-73
2023/07/07 03:46:14;;;;;;;8.30;6.25;;;14.80;64.30;;;;;;5029151;28;20033;-73
2023/07/07 03:48:40;;;;;;;6.95;6.25;;;14.60;64.80;;;;;;5030436;28;20017;-73
2023/07/07 03:51:06;;;;;;;9.48;6.10;;;14.60;64.90;;;;;;5029902;28;20040;-73
2023/07/07 03:53:32;;;;;;;5.97;5.18;;;14.70;65.10;;;;;;5029985;28;20030;-73
2023/07/07 03:55:57;;;;;;;8.75;5.40;;;14.70;65.20;;;;;;5030000;28;20032;-73
2023/07/07 03:58:24;;;;;;;7.15;5.47;;;14.60;65.10;;;;;;5029781;28;20393;-73
2023/07/07 04:00:50;;;;;;;6.20;5.25;;;14.70;65.30;;;;;;5029661;28;20018;-73
2023/07/07 04:03:17;;;;;;;7.78;5.63;;;14.70;65.00;;;;;;5029748;28;20035;-73
2023/07/07 04:05:44;;;;;;;7.63;6.00;;;14.80;64.70;;;;;;5029924;28;20040;-74
2023/07/07 04:08:09;;;;;;;6.97;5.32;;;15.00;64.50;;;;;;5029790;28;20030;-73
2023/07/07 04:10:35;;;;;;;8.85;5.50;;;15.00;64.00;;;;;;5029470;28;20053;-73
2023/07/07 04:13:01;;;;;;;8.43;5.70;;;15.10;63.60;;;;;;5029573;28;20096;-73
2023/07/07 04:15:26;;;;;;;6.93;5.55;;;15.10;63.40;;;;;;5027241;28;20116;-73
2023/07/07 04:17:52;;;;;;;8.63;5.97;;;15.20;63.40;;;;;;5029907;28;20057;-73
2023/07/07 04:20:17;;;;;;;8.35;5.45;;;15.10;63.20;;;;;;5029785;28;20026;-73
2023/07/07 04:22:43;;;;;;;7.63;5.80;;;15.10;63.20;;;;;;5029694;28;20521;-73
2023/07/07 04:25:14;;;;;;;10.77;5.82;;;15.20;63.20;;;;;;5029490;28;20034;-74
2023/07/07 04:27:40;;;;;;;8.57;5.40;;;15.20;63.30;;;;;;5029594;28;20039;-73
2023/07/07 04:30:06;;;;;;;7.35;5.25;;;15.30;63.30;;;;;;5029483;28;20028;-73
2023/07/07 04:32:32;;;;;;;7.38;5.20;;;15.50;63.00;;;;;;5029623;28;20039;-73
2023/07/07 04:34:59;;;;;;;9.15;5.35;;;15.60;62.20;;;;;;5029613;28;20017;-73
2023/07/07 04:37:25;;;;;;;6.97;5.35;;;15.70;61.80;;;;;;5029696;28;20049;-73
2023/07/07 04:39:51;;;;;;;6.80;5.80;;;15.70;61.70;;;;;;5029794;28;20021;-73
2023/07/07 04:42:17;;;;;;;7.25;5.35;;;15.80;61.30;;;;;;5029532;28;20046;-73
2023/07/07 04:44:43;;;;;;;6.68;5.43;;;15.90;61.00;;;;;;5029588;28;20030;-73
2023/07/07 04:47:08;;;;;;;6.90;5.45;;;15.90;61.00;;;;;;5029568;28;20029;-72
2023/07/07 04:49:34;;;;;;;5.80;5.18;;;16.00;60.70;;;;;;5029307;28;20033;-72
2023/07/07 04:51:59;;;;;;;6.32;5.40;;;16.10;60.60;;;;;;5029167;28;20030;-73
2023/07/07 04:54:25;;;;;;;8.65;5.80;;;16.10;60.30;;;;;;5029575;28;20096;-72
2023/07/07 04:56:50;;;;;;;5.90;5.28;;;16.10;60.30;;;;;;5029557;28;20376;-74
2023/07/07 04:59:16;;;;;;;7.00;5.50;;;16.20;60.20;;;;;;5029637;28;20049;-73
2023/07/07 05:01:42;;;;;;;5.93;5.30;;;16.30;60.20;;;;;;5029456;28;20029;-73
2023/07/07 05:04:08;;;;;;;9.52;5.93;;;16.30;61.00;;;;;;5029414;28;20033;-73
2023/07/07 05:06:37;;;;;;;9.52;5.72;;;16.30;60.00;;;;;;5029411;28;20041;-73
2023/07/07 05:09:04;;;;;;;6.35;5.22;;;16.30;60.00;;;;;;5029666;28;20044;-73
2023/07/07 05:11:32;;;;;;;8.90;5.63;;;16.40;59.90;;;;;;5029477;28;20030;-74
2023/07/07 05:13:59;;;;;;;6.78;5.28;;;16.50;60.10;;;;;;5029418;28;20025;-73
2023/07/07 05:16:27;;;;;;;7.57;5.45;;;16.60;59.90;;;;;;5029363;28;20032;-73
2023/07/07 05:18:53;;;;;;;8.10;6.28;;;16.70;59.80;;;;;;5029245;28;20330;-73
2023/07/07 05:21:20;;;;;;;8.82;6.20;;;16.80;59.10;;;;;;5029042;28;20018;-73
2023/07/07 05:23:46;;;;;;;8.70;6.50;;;16.80;59.20;;;;;;5028281;28;20430;-74
2023/07/07 05:26:12;;;;;;;10.40;6.38;;;16.80;59.50;;;;;;5028967;28;20072;-73
2023/07/07 05:28:37;;;;;;;6.97;5.88;;;16.90;59.40;;;;;;5032089;28;20361;-74
2023/07/07 05:31:06;;;;;;;11.65;6.70;;;16.80;59.00;;;;;;5031958;28;20037;-73
2023/07/07 05:33:33;;;;;;;11.15;7.70;;;16.80;58.70;;;;;;5031133;28;20022;-73
2023/07/07 05:36:00;;;;;;;11.02;6.88;;;16.90;58.80;;;;;;5032456;28;20029;-74
2023/07/07 05:38:27;;;;;;;7.53;6.72;;;17.00;58.30;;;;;;5032133;28;20051;-74
2023/07/07 05:40:53;;;;;;;6.95;6.25;;;17.10;58.20;;;;;;5032246;28;20041;-73
2023/07/07 05:43:21;;;;;;;8.05;6.75;;;17.20;57.70;;;;;;5032542;28;20030;-73
2023/07/07 05:45:47;;;;;;;12.98;6.97;;;17.30;57.00;;;;;;5032141;28;20041;-74
2023/07/07 05:48:14;;;;;;;8.00;6.50;;;17.30;57.30;;;;;;5032414;28;20017;-73
2023/07/07 05:50:41;;;;;;;10.15;6.40;;;17.30;57.50;;;;;;5032158;28;20031;-72
2023/07/07 05:53:09;;;;;;;9.27;6.55;;;17.50;57.20;;;;;;5032287;28;20021;-73
2023/07/07 05:55:35;;;;;;;8.05;6.40;;;17.50;56.60;;;;;;5032284;28;20541;-72
2023/07/07 05:58:02;;;;;;;12.80;6.93;;;17.70;56.20;;;;;;5032244;28;20100;-72
2023/07/07 06:00:29;;;;;;;10.82;7.25;;;17.70;56.20;;;;;;5032149;28;20404;-73
2023/07/07 06:02:56;;;;;;;8.27;6.53;;;17.80;56.70;;;;;;5030676;28;20040;-78
2023/07/07 06:05:22;;;;;;;13.70;6.68;;;17.90;56.40;;;;;;5032050;28;20028;-74
2023/07/07 06:07:49;;;;;;;10.07;6.45;;;18.00;55.50;;;;;;5031894;28;20078;-74
2023/07/07 06:10:15;;;;;;;10.18;6.47;;;18.10;55.40;;;;;;5033040;28;20030;-74
2023/07/07 06:12:41;;;;;;;15.70;7.68;;;18.30;55.30;;;;;;5034464;28;20034;-74
2023/07/07 06:15:07;;;;;;;11.30;6.35;;;18.50;55.00;;;;;;5033299;28;20038;-75
2023/07/07 06:17:32;;;;;;;8.40;6.13;;;18.60;54.60;;;;;;5030473;28;20477;-73
2023/07/07 06:19:59;;;;;;;10.27;6.15;;;18.70;54.50;;;;;;5031692;28;20037;-72
2023/07/07 06:22:24;;;;;;;8.05;6.20;;;18.90;54.20;;;;;;5031750;28;20117;-74
2023/07/07 06:24:52;;;;;;;9.98;6.57;;;19.00;53.70;;;;;;5031749;28;20074;-72
2023/07/07 06:27:18;;;;;;;10.07;6.82;;;19.10;53.80;;;;;;5030323;28;20486;-76
2023/07/07 06:29:43;;;;;;;10.23;6.30;;;19.20;53.70;;;;;;5031469;28;20053;-73
2023/07/07 06:32:10;;;;;;;7.68;5.72;;;19.30;53.70;;;;;;5031747;28;20032;-75
2023/07/07 06:34:35;;;;;;;8.77;6.43;;;19.30;53.90;;;;;;5031596;28;20025;-78
2023/07/07 06:37:01;;;;;;;15.15;6.53;;;19.30;54.10;;;;;;5031583;28;20025;-75
2023/07/07 06:39:28;;;;;;;13.10;6.88;;;19.40;54.10;;;;;;5030444;28;20097;-75
2023/07/07 06:41:54;;;;;;;11.23;6.80;;;19.50;54.10;;;;;;5031391;28;20041;-74
2023/07/07 06:44:20;;;;;;;13.13;7.07;;;19.60;53.30;;;;;;5031342;28;20029;-73
2023/07/07 06:46:45;;;;;;;8.07;6.30;;;19.70;53.10;;;;;;5031413;28;20250;-77
2023/07/07 06:49:11;;;;;;;8.90;5.95;;;19.80;53.00;;;;;;5031544;28;20359;-73
2023/07/07 06:51:37;;;;;;;9.63;6.88;;;19.80;52.60;;;;;;5031282;28;20031;-73
2023/07/07 06:54:03;;;;;;;7.55;6.00;;;20.00;53.00;;;;;;5029989;28;20025;-73
2023/07/07 06:56:28;;;;;;;6.57;5.80;;;20.10;53.00;;;;;;5030977;28;20029;-73
2023/07/07 06:58:54;;;;;;;9.23;5.80;;;20.30;52.50;;;;;;5031161;28;20037;-73
2023/07/07 07:01:20;;;;;;;10.20;5.78;;;20.50;51.90;;;;;;5031159;28;20470;-73
2023/07/07 07:03:45;;;;;;;9.00;5.55;;;20.70;52.20;;;;;;5029623;28;20120;-73
2023/07/07 07:06:12;;;;;;;10.88;6.22;;;20.80;51.10;;;;;;5030911;28;20079;-75
2023/07/07 07:08:37;;;;;;;9.95;5.80;;;21.00;51.30;;;;;;5031064;28;20062;-74
2023/07/07 07:11:06;;;;;;;13.00;6.28;;;21.10;51.70;;;;;;5030545;28;20083;-73
2023/07/07 07:13:32;;;;;;;11.52;5.60;;;21.10;50.60;;;;;;5030565;28;20025;-73
2023/07/07 07:15:57;;;;;;;8.18;5.80;;;21.30;50.50;;;;;;5030450;28;20033;-75
2023/07/07 07:18:23;;;;;;;6.70;5.45;;;21.40;50.90;;;;;;5030659;28;20021;-74
2023/07/07 07:20:50;;;;;;;6.63;5.28;;;21.60;50.50;;;;;;5030487;28;20022;-76
2023/07/07 07:23:17;;;;;;;7.07;5.68;;;21.80;50.30;;;;;;5030624;28;20029;-76
2023/07/07 07:25:43;;;;;;;11.32;5.50;;;21.90;50.10;;;;;;5028852;28;20439;-74
2023/07/07 07:28:09;;;;;;;10.80;6.40;;;22.00;49.80;;;;;;5029178;28;20585;-74
2023/07/07 07:30:35;;;;;;;12.02;7.13;;;22.00;50.10;;;;;;5029294;28;20036;-73
2023/07/07 07:33:03;;;;;;;6.90;5.38;;;22.20;50.10;;;;;;5029063;28;20033;-72
2023/07/07 07:35:29;;;;;;;7.82;5.72;;;22.20;49.70;;;;;;5030544;28;20044;-73
2023/07/07 07:37:55;;;;;;;7.75;5.10;;;22.40;49.20;;;;;;5030573;28;20473;-72
2023/07/07 07:40:23;;;;;;;5.70;4.78;;;22.60;48.70;;;;;;5030296;28;20428;-72
2023/07/07 07:42:49;;;;;;;7.32;4.88;;;22.70;47.50;;;;;;5030033;28;20093;-73
2023/07/07 07:45:18;;;;;;;7.82;5.20;;;22.90;46.50;;;;;;5030281;28;20029;-73
2023/07/07 07:47:45;;;;;;;12.65;5.20;;;23.10;43.40;;;;;;5030069;28;20029;-74
2023/07/07 07:50:11;;;;;;;5.70;4.80;;;23.20;42.90;;;;;;5029656;28;20036;-74
2023/07/07 07:52:37;;;;;;;9.05;5.47;;;23.40;42.20;;;;;;5029991;28;20082;-75
2023/07/07 07:55:02;;;;;;;6.70;5.30;;;23.60;40.90;;;;;;5030146;28;20033;-75
2023/07/07 07:57:28;;;;;;;9.05;5.43;;;23.70;40.90;;;;;;5030185;28;20018;-77
2023/07/07 07:59:54;;;;;;;9.07;5.68;;;23.70;39.60;;;;;;5030069;28;20029;-76
2023/07/07 08:02:20;;;;;;;9.20;4.85;;;23.70;38.70;;;;;;5030046;28;20064;-76
2023/07/07 08:04:45;;;;;;;8.95;5.80;;;23.70;39.40;;;;;;5028709;28;20030;-75
2023/07/07 08:07:11;;;;;;;7.47;5.20;;;23.80;40.00;;;;;;5030046;28;20036;-74
2023/07/07 08:09:36;;;;;;;8.55;5.00;;;23.90;39.20;;;;;;5030486;28;20029;-75
2023/07/07 08:12:03;;;;;;;10.32;5.75;;;24.00;39.20;;;;;;5028583;28;20037;-74
2023/07/07 08:14:30;;;;;;;9.25;5.88;;;24.00;37.50;;;;;;5029762;28;20108;-75
2023/07/07 08:16:58;;;;;;;7.57;5.68;;;24.20;37.00;;;;;;5029377;28;20098;-76
2023/07/07 08:19:25;;;;;;;7.85;5.82;;;24.20;36.60;;;;;;5029582;28;20127;-75
2023/07/07 08:21:50;;;;;;;9.02;6.20;;;24.30;36.50;;;;;;5029732;28;20064;-76
2023/07/07 08:24:16;;;;;;;9.02;6.32;;;24.30;35.40;;;;;;5029749;28;20423;-76
2023/07/07 08:26:42;;;;;;;7.10;5.93;;;24.40;35.90;;;;;;5029469;28;20037;-76
2023/07/07 08:29:09;;;;;;;7.78;5.43;;;24.50;34.30;;;;;;5029495;28;20389;-76
2023/07/07 08:31:35;;;;;;;8.27;5.78;;;24.50;35.60;;;;;;5029422;28;20129;-76
2023/07/07 08:34:02;;;;;;;13.27;5.57;;;24.60;35.70;;;;;;5029647;28;20533;-76
2023/07/07 08:36:28;;;;;;;10.43;6.00;;;24.70;35.30;;;;;;5028354;28;20032;-76
2023/07/07 08:38:55;;;;;;;7.53;5.57;;;24.80;32.90;;;;;;5028239;28;20033;-76
2023/07/07 08:41:21;;;;;;;11.70;5.90;;;24.80;34.70;;;;;;5028177;28;20167;-75
2023/07/07 08:43:47;;;;;;;9.10;5.82;;;24.80;35.40;;;;;;5028204;28;20045;-76
2023/07/07 08:46:17;;;;;;;8.70;6.55;;;24.80;33.30;;;;;;5027965;28;20041;-75
2023/07/07 08:49:07;;;;;;;10.63;6.35;;;24.90;32.50;;;;;;5028192;28;20549;-76
2023/07/07 08:51:40;;;;;;;7.90;5.75;;;24.90;32.90;;;;;;5028238;28;20041;-75
2023/07/07 08:54:24;;;;;;;10.63;6.25;;;25.00;32.50;;;;;;5028281;28;20507;-75
2023/07/07 08:56:57;;;;;;;9.48;6.47;;;25.00;33.60;;;;;;5028217;28;20029;-75
2023/07/07 08:59:47;;;;;;;9.05;6.13;;;25.00;33.40;;;;;;5027811;28;20403;-76
2023/07/07 09:02:44;;;;;;;8.45;5.88;;;25.10;33.20;;;;;;5029275;28;20030;-79
2023/07/07 09:05:15;;;;;;;14.70;6.95;;;25.20;33.40;;;;;;5031633;28;20457;-76
2023/07/07 09:08:08;;;;;;;8.68;5.72;;;25.30;33.10;;;;;;5031569;28;20029;-78
2023/07/07 09:11:01;;;;;;;10.27;5.82;;;25.40;33.00;;;;;;5031664;28;20035;-79
2023/07/07 09:13:32;;;;;;;8.40;6.10;;;25.30;32.10;;;;;;5031732;28;20025;-72
2023/07/07 09:16:03;;;;;;;6.80;5.38;;;25.40;32.50;;;;;;5032693;28;20077;-73
2023/07/07 09:19:03;;;;;;;9.27;5.95;;;25.40;31.50;;;;;;5032712;28;20028;-73
2023/07/07 09:21:38;;;;;;;13.55;6.45;;;25.40;33.40;;;;;;5032624;28;20030;-74
2023/07/07 09:24:18;;;;;;;11.98;5.90;;;25.70;33.60;;;;;;5032536;28;20038;-71
2023/07/07 09:26:45;;;;;;;8.95;5.55;;;25.80;31.30;;;;;;5032069;28;20641;-71
2023/07/07 09:29:26;;;;;;;11.27;6.22;;;25.70;31.10;;;;;;5032185;28;20096;-71
2023/07/07 09:31:52;;;;;;;9.95;6.15;;;25.70;30.80;;;;;;5030391;28;20018;-70
2023/07/07 09:34:19;;;;;;;11.10;6.03;;;25.70;30.80;;;;;;5031961;28;20449;-72
2023/07/07 09:37:12;;;;;;;7.35;4.90;;;25.80;32.40;;;;;;5029156;28;20322;-71
2023/07/07 09:40:13;;;;;;;58.40;9.68;;;26.00;32.70;;;;;;5030842;28;20014;-73
2023/07/07 09:43:08;;;;;;;15.02;6.60;;;26.20;33.40;;;;;;5030986;28;20374;-72
2023/07/07 09:46:01;;;;;;;8.68;5.38;;;26.40;32.00;;;;;;5031548;28;20021;-70
2023/07/07 09:48:51;;;;;;;9.15;6.28;;;26.30;29.80;;;;;;5031413;28;20037;-73
2023/07/07 09:51:53;;;;;;;11.15;5.75;;;26.10;29.70;;;;;;5031692;28;20022;-71
2023/07/07 09:54:21;;;;;;;9.43;6.07;;;26.00;30.00;;;;;;5031910;28;20477;-71
2023/07/07 09:56:55;;;;;;;9.10;6.00;;;26.00;31.50;;;;;;5031751;28;20033;-71
2023/07/07 09:59:25;;;;;;;13.30;6.00;;;26.20;31.00;;;;;;5031805;28;20453;-71
2023/07/07 10:01:54;;;;;;;11.85;6.03;;;26.30;30.60;;;;;;5031756;28;20163;-71
2023/07/07 10:04:24;;;;;;;13.60;6.20;;;26.40;31.30;;;;;;5031445;28;20536;-71
2023/07/07 10:06:57;;;;;;;11.10;5.88;;;26.60;31.00;;;;;;5031349;28;20041;-70
2023/07/07 10:09:23;;;;;;;8.38;5.82;;;26.80;30.40;;;;;;5031216;28;20162;-71
2023/07/07 10:11:50;;;;;;;8.82;5.50;;;26.90;30.60;;;;;;5031050;28;20021;-71
2023/07/07 10:14:17;;;;;;;9.95;5.97;;;27.10;29.50;;;;;;5031123;28;20033;-71
2023/07/07 10:17:01;;;;;;;8.25;5.95;;;27.20;29.70;;;;;;5031179;28;20029;-70
2023/07/07 10:19:27;;;;;;;11.63;5.60;;;27.40;29.70;;;;;;5031579;28;20029;-72
2023/07/07 10:21:53;;;;;;;10.60;5.80;;;27.50;29.10;;;;;;5030680;28;20033;-74
2023/07/07 10:24:19;;;;;;;9.10;5.88;;;27.70;29.30;;;;;;5030799;28;20024;-70
2023/07/07 10:26:47;;;;;;;10.05;5.30;;;27.80;27.40;;;;;;5030826;28;20125;-72
2023/07/07 10:29:23;;;;;;;12.82;6.03;;;27.80;25.70;;;;;;5030714;28;20023;-73
2023/07/07 10:31:50;;;;;;;8.73;5.60;;;27.60;25.50;;;;;;5030656;28;20026;-71
2023/07/07 10:34:24;;;;;;;9.43;5.55;;;27.30;26.50;;;;;;5030656;28;20067;-71
2023/07/07 10:36:53;;;;;;;14.65;6.35;;;27.30;28.10;;;;;;5030898;28;20465;-72
2023/07/07 10:39:21;;;;;;;9.95;5.78;;;27.50;27.10;;;;;;5027078;28;20067;-72
2023/07/07 10:41:47;;;;;;;12.23;5.75;;;27.70;25.80;;;;;;5030583;28;20042;-71
2023/07/07 10:44:13;;;;;;;10.30;5.45;;;27.70;24.50;;;;;;5030803;28;20045;-72
2023/07/07 10:46:38;;;;;;;9.27;5.57;;;27.80;25.00;;;;;;5030823;28;20072;-74
2023/07/07 10:49:04;;;;;;;12.25;5.55;;;27.90;24.40;;;;;;5029410;28;20084;-71
2023/07/07 10:51:48;;;;;;;10.10;5.55;;;28.00;25.60;;;;;;5030581;28;20021;-77
2023/07/07 10:54:42;;;;;;;10.10;5.70;;;28.20;25.30;;;;;;5030053;28;20048;-71
2023/07/07 10:57:40;;;;;;;7.72;5.30;;;28.40;25.20;;;;;;5034092;28;20097;-72
2023/07/07 11:00:50;;;;;;;10.40;5.45;;;28.70;23.60;;;;;;5029110;28;20473;-71
2023/07/07 11:03:42;;;;;;;9.23;5.88;;;28.80;23.10;;;;;;5029855;28;20020;-71
2023/07/07 11:06:23;;;;;;;21.35;19.05;;;28.90;23.50;;;;;;5029217;28;20026;-73
2023/07/07 11:09:08;;;;;;;8.27;6.18;;;28.90;24.00;;;;;;5029356;28;20386;-73
2023/07/07 11:11:39;;;;;;;8.75;5.60;;;29.10;24.80;;;;;;5011136;28;20029;-72
2023/07/07 11:14:34;;;;;;;9.65;5.53;;;29.30;22.80;;;;;;5010761;28;20112;-71
2023/07/07 11:17:16;;;;;;;10.90;5.20;;;29.20;22.70;;;;;;5011103;28;20025;-71
2023/07/07 11:20:00;;;;;;;8.05;5.55;;;29.10;24.10;;;;;;5011181;28;20114;-72
2023/07/07 11:22:56;;;;;;;9.15;5.20;;;28.90;22.80;;;;;;5011092;28;20091;-70
2023/07/07 11:25:30;;;;;;;10.25;5.30;;;28.70;23.90;;;;;;5062239;28;20058;-73
2023/07/07 11:28:01;;;;;;;7.90;4.43;;;28.70;23.50;;;;;;5011030;28;20034;-71
2023/07/07 11:30:49;;;;;;;8.55;5.18;;;28.70;23.70;;;;;;5010841;28;20022;-71
2023/07/07 11:33:35;;;;;;;11.18;5.38;;;28.90;23.70;;;;;;5010724;28;20147;-70
2023/07/07 11:36:33;;;;;;;10.85;5.18;;;29.10;25.60;;;;;;5010545;28;20159;-72
2023/07/07 11:39:26;;;;;;;8.75;5.32;;;29.50;23.50;;;;;;5010497;28;20018;-72
2023/07/07 11:42:22;;;;;;;11.35;5.80;;;29.40;23.90;;;;;;5009189;28;20042;-71
2023/07/07 11:44:53;;;;;;;;;;;29.40;23.90;;;;;;5026028;28;20033;-71
2023/07/07 11:47:26;;;;;;;97.90;11.15;;;29.60;23.60;;;;;;5010426;28;19921;-71
2023/07/07 11:50:19;;;;;;;31.30;6.70;;;29.60;25.40;;;;;;5010620;28;20058;-72
2023/07/07 11:52:51;;;;;;;14.05;5.65;;;29.60;24.20;;;;;;5010563;28;20378;-72
2023/07/07 11:55:42;;;;;;;24.27;6.90;;;29.80;23.50;;;;;;5011017;28;20124;-71
2023/07/07 11:58:23;;;;;;;14.80;5.50;;;30.20;24.40;;;;;;5025617;28;20482;-72
2023/07/07 12:01:13;;;;;;;14.73;5.88;;;30.50;23.20;;;;;;5010614;28;20030;-71
2023/07/07 12:03:50;;;;;;;13.90;5.20;;;30.60;22.80;;;;;;5025650;28;20046;-70
2023/07/07 12:06:30;;;;;;;13.45;5.72;;;30.70;21.30;;;;;;5010258;28;20482;-71
2023/07/07 12:09:18;;;;;;;11.77;5.57;;;30.50;20.60;;;;;;5010208;28;20034;-71
2023/07/07 12:11:57;;;;;;;10.18;5.68;;;30.40;20.50;;;;;;5010383;28;20056;-70
2023/07/07 12:14:41;;;;;;;8.13;5.68;;;30.30;21.10;;;;;;5010299;28;20061;-72
2023/07/07 12:17:14;;;;;;;8.02;4.90;;;30.50;22.30;;;;;;5010296;28;20021;-73
2023/07/07 12:19:48;;;;;;;9.68;5.40;;;30.70;20.70;;;;;;5009909;28;20018;-74
2023/07/07 12:22:19;;;;;;;12.47;5.60;;;30.80;20.80;;;;;;5010205;28;20037;-71
2023/07/07 12:25:16;;;;;;;22.65;6.00;;;31.00;21.60;;;;;;5010336;28;20041;-72
2023/07/07 12:27:52;;;;;;;7.95;4.63;;;31.30;20.80;;;;;;5024891;28;20026;-72
2023/07/07 12:30:32;;;;;;;14.27;6.10;;;31.10;20.70;;;;;;5010016;28;20026;-72
2023/07/07 12:32:58;;;;;;;10.60;5.40;;;31.00;22.20;;;;;;5010152;28;20466;-72
2023/07/07 12:35:27;;;;;;;7.28;5.63;;;30.60;21.20;;;;;;5008748;28;20475;-73
2023/07/07 12:37:56;;;;;;;16.85;6.03;;;30.70;22.30;;;;;;5010676;28;20022;-72
2023/07/07 12:40:22;;;;;;;19.05;6.35;;;31.00;23.30;;;;;;5013616;28;20100;-73
2023/07/07 12:43:17;;;;;;;10.25;4.97;;;31.10;24.00;;;;;;5013495;28;20574;-71
2023/07/07 12:45:46;;;;;;;9.98;5.22;;;31.10;22.20;;;;;;5013805;28;20042;-72
2023/07/07 12:48:19;;;;;;;9.15;5.20;;;30.90;21.50;;;;;;5013764;28;20445;-72
2023/07/07 12:50:45;;;;;;;10.32;5.22;;;30.80;23.00;;;;;;5011996;28;20025;-71
2023/07/07 12:53:32;;;;;;;7.13;4.70;;;30.80;22.70;;;;;;5013319;28;20025;-71
2023/07/07 12:56:01;;;;;;;10.68;5.07;;;30.50;23.40;;;;;;5022758;28;20038;-72
2023/07/07 12:58:37;;;;;;;8.90;5.22;;;30.30;23.10;;;;;;5013076;28;20077;-73
2023/07/07 13:01:10;;;;;;;8.38;4.78;;;30.10;23.90;;;;;;5028623;28;20097;-73
2023/07/07 13:03:44;;;;;;;9.40;5.75;;;30.30;25.80;;;;;;5011902;28;20041;-73